sensor_id;sensor_type;location;lat;lon;timestamp;pressure;altitude;pressure_sealevel;temperature;humidity
40612;BME280;26317;44.894;20.286;2023-08-20T00:01:46;100860.63;;;26.39;78.64
40612;BME280;26317;44.894;20.286;2023-08-20T00:04:39;100862.13;;;26.33;79.00
40612;BME280;26317;44.894;20.286;2023-08-20T00:07:16;100858.53;;;26.29;78.56
40612;BME280;26317;44.894;20.286;2023-08-20T00:09:55;100854.91;;;26.25;79.31
40612;BME280;26317;44.894;20.286;2023-08-20T00:12:37;100861.13;;;26.22;79.65
40612;BME280;26317;44.894;20.286;2023-08-20T00:15:13;100861.13;;;26.22;80.24
40612;BME280;26317;44.894;20.286;2023-08-20T00:17:51;100856.34;;;26.19;80.66
40612;BME280;26317;44.894;20.286;2023-08-20T00:20:32;100854.69;;;26.15;80.13
40612;BME280;26317;44.894;20.286;2023-08-20T00:23:21;100855.50;;;26.15;80.63
40612;BME280;26317;44.894;20.286;2023-08-20T00:26:04;100841.59;;;26.04;80.77
40612;BME280;26317;44.894;20.286;2023-08-20T00:28:43;100842.78;;;26.07;81.23
40612;BME280;26317;44.894;20.286;2023-08-20T00:31:19;100852.25;;;26.09;81.04
40612;BME280;26317;44.894;20.286;2023-08-20T00:33:54;100850.19;;;26.03;80.66
40612;BME280;26317;44.894;20.286;2023-08-20T00:36:46;100855.38;;;26.08;80.69
40612;BME280;26317;44.894;20.286;2023-08-20T00:39:30;100856.91;;;26.05;81.01
40612;BME280;26317;44.894;20.286;2023-08-20T00:42:14;100857.69;;;26.06;81.22
40612;BME280;26317;44.894;20.286;2023-08-20T00:44:53;100860.03;;;26.04;81.05
40612;BME280;26317;44.894;20.286;2023-08-20T00:47:28;100850.78;;;25.93;81.73
40612;BME280;26317;44.894;20.286;2023-08-20T00:50:08;100849.59;;;25.90;81.59
40612;BME280;26317;44.894;20.286;2023-08-20T00:52:52;100857.88;;;25.94;81.83
40612;BME280;26317;44.894;20.286;2023-08-20T00:55:30;100860.63;;;25.94;82.01
40612;BME280;26317;44.894;20.286;2023-08-20T00:58:07;100841.94;;;25.80;82.38
40612;BME280;26317;44.894;20.286;2023-08-20T01:00:43;100857.72;;;25.83;83.00
40612;BME280;26317;44.894;20.286;2023-08-20T01:03:22;100854.91;;;25.80;83.18
40612;BME280;26317;44.894;20.286;2023-08-20T01:06:06;100855.63;;;25.77;82.79
40612;BME280;26317;44.894;20.286;2023-08-20T01:09:01;100843.66;;;25.66;83.55
40612;BME280;26317;44.894;20.286;2023-08-20T01:11:52;100854.41;;;25.74;83.63
40612;BME280;26317;44.894;20.286;2023-08-20T01:14:32;100847.13;;;25.62;83.85
40612;BME280;26317;44.894;20.286;2023-08-20T01:17:08;100850.34;;;25.68;83.45
40612;BME280;26317;44.894;20.286;2023-08-20T01:19:52;100853.47;;;25.67;84.16
40612;BME280;26317;44.894;20.286;2023-08-20T01:22:52;100866.44;;;25.66;83.73
40612;BME280;26317;44.894;20.286;2023-08-20T01:25:48;100861.66;;;25.63;84.18
40612;BME280;26317;44.894;20.286;2023-08-20T01:28:43;100865.50;;;25.58;84.61
40612;BME280;26317;44.894;20.286;2023-08-20T01:31:25;100863.91;;;25.57;84.95
40612;BME280;26317;44.894;20.286;2023-08-20T01:34:04;100866.22;;;25.55;84.89
40612;BME280;26317;44.894;20.286;2023-08-20T01:36:46;100866.22;;;25.55;84.50
40612;BME280;26317;44.894;20.286;2023-08-20T01:39:30;100870.91;;;25.55;84.98
40612;BME280;26317;44.894;20.286;2023-08-20T01:42:15;100866.22;;;25.55;84.81
40612;BME280;26317;44.894;20.286;2023-08-20T01:45:01;100879.53;;;25.53;84.29
40612;BME280;26317;44.894;20.286;2023-08-20T01:47:37;100882.59;;;25.52;84.97
40612;BME280;26317;44.894;20.286;2023-08-20T01:50:12;100874.03;;;25.53;85.33
40612;BME280;26317;44.894;20.286;2023-08-20T01:52:52;100873.72;;;25.39;84.39
40612;BME280;26317;44.894;20.286;2023-08-20T01:55:28;100868.09;;;25.32;84.31
40612;BME280;26317;44.894;20.286;2023-08-20T01:58:04;100869.22;;;25.31;84.49
40612;BME280;26317;44.894;20.286;2023-08-20T02:01:06;100872.72;;;25.28;84.23
40612;BME280;26317;44.894;20.286;2023-08-20T02:03:41;100872.66;;;25.25;83.99
40612;BME280;26317;44.894;20.286;2023-08-20T02:06:14;100879.22;;;25.20;83.81
40612;BME280;26317;44.894;20.286;2023-08-20T02:08:48;100891.63;;;25.14;83.92
40612;BME280;26317;44.894;20.286;2023-08-20T02:11:29;100887.53;;;25.04;84.09
40612;BME280;26317;44.894;20.286;2023-08-20T02:14:10;100874.88;;;25.00;83.76
40612;BME280;26317;44.894;20.286;2023-08-20T02:17:01;100888.16;;;24.98;84.92
40612;BME280;26317;44.894;20.286;2023-08-20T02:19:38;100885.69;;;24.93;85.01
40612;BME280;26317;44.894;20.286;2023-08-20T02:22:16;100884.81;;;24.89;84.87
40612;BME280;26317;44.894;20.286;2023-08-20T02:24:49;100882.06;;;24.89;85.35
40612;BME280;26317;44.894;20.286;2023-08-20T02:27:37;100887.53;;;24.89;85.67
40612;BME280;26317;44.894;20.286;2023-08-20T02:30:34;100882.31;;;24.84;85.50
40612;BME280;26317;44.894;20.286;2023-08-20T02:33:29;100883.81;;;24.81;85.30
40612;BME280;26317;44.894;20.286;2023-08-20T02:36:09;100892.06;;;24.81;85.52
40612;BME280;26317;44.894;20.286;2023-08-20T02:38:48;100898.53;;;24.73;85.76
40612;BME280;26317;44.894;20.286;2023-08-20T02:41:23;100894.91;;;24.69;85.47
40612;BME280;26317;44.894;20.286;2023-08-20T02:44:10;100903.94;;;24.69;85.24
40612;BME280;26317;44.894;20.286;2023-08-20T02:46:50;100901.47;;;24.64;85.52
40612;BME280;26317;44.894;20.286;2023-08-20T02:49:44;100908.81;;;24.60;85.34
40612;BME280;26317;44.894;20.286;2023-08-20T02:52:19;100915.03;;;24.57;85.47
40612;BME280;26317;44.894;20.286;2023-08-20T02:54:55;100912.63;;;24.56;85.18
40612;BME280;26317;44.894;20.286;2023-08-20T02:57:57;100892.31;;;24.41;85.59
40612;BME280;26317;44.894;20.286;2023-08-20T03:00:34;100907.78;;;24.49;85.80
40612;BME280;26317;44.894;20.286;2023-08-20T03:03:08;100915.22;;;24.49;85.25
40612;BME280;26317;44.894;20.286;2023-08-20T03:05:57;100907.97;;;24.41;85.88
40612;BME280;26317;44.894;20.286;2023-08-20T03:08:33;100911.75;;;24.36;85.76
40612;BME280;26317;44.894;20.286;2023-08-20T03:11:18;100909.75;;;24.33;86.36
40612;BME280;26317;44.894;20.286;2023-08-20T03:13:58;100892.22;;;24.22;86.09
40612;BME280;26317;44.894;20.286;2023-08-20T03:16:36;100907.25;;;24.28;85.67
40612;BME280;26317;44.894;20.286;2023-08-20T03:19:10;100915.41;;;24.24;85.80
40612;BME280;26317;44.894;20.286;2023-08-20T03:21:58;100895.00;;;24.10;85.88
40612;BME280;26317;44.894;20.286;2023-08-20T03:24:38;100908.47;;;24.15;85.98
40612;BME280;26317;44.894;20.286;2023-08-20T03:27:14;100910.09;;;24.16;86.10
40612;BME280;26317;44.894;20.286;2023-08-20T03:29:48;100916.25;;;24.13;86.33
40612;BME280;26317;44.894;20.286;2023-08-20T03:32:26;100919.75;;;24.13;87.03
40612;BME280;26317;44.894;20.286;2023-08-20T03:35:03;100924.00;;;24.11;87.24
40612;BME280;26317;44.894;20.286;2023-08-20T03:37:46;100922.25;;;24.03;87.75
40612;BME280;26317;44.894;20.286;2023-08-20T03:40:37;100918.16;;;23.97;88.62
40612;BME280;26317;44.894;20.286;2023-08-20T03:43:15;100916.56;;;23.96;88.60
40612;BME280;26317;44.894;20.286;2023-08-20T03:45:57;100926.81;;;23.99;88.40
40612;BME280;26317;44.894;20.286;2023-08-20T03:48:29;100919.03;;;24.01;88.28
40612;BME280;26317;44.894;20.286;2023-08-20T03:51:19;100914.25;;;23.98;89.45
40612;BME280;26317;44.894;20.286;2023-08-20T03:54:10;100907.72;;;24.02;89.52
40612;BME280;26317;44.894;20.286;2023-08-20T03:56:43;100910.13;;;24.04;89.63
40612;BME280;26317;44.894;20.286;2023-08-20T03:59:26;100922.41;;;24.10;89.36
40612;BME280;26317;44.894;20.286;2023-08-20T04:02:06;100914.28;;;24.13;88.99
40612;BME280;26317;44.894;20.286;2023-08-20T04:04:42;100919.75;;;24.13;89.17
40612;BME280;26317;44.894;20.286;2023-08-20T04:07:20;100926.84;;;24.14;89.59
40612;BME280;26317;44.894;20.286;2023-08-20T04:10:01;100921.03;;;24.16;89.90
40612;BME280;26317;44.894;20.286;2023-08-20T04:12:39;100917.72;;;24.10;90.05
40612;BME280;26317;44.894;20.286;2023-08-20T04:15:22;100934.09;;;24.07;90.75
40612;BME280;26317;44.894;20.286;2023-08-20T04:18:00;100930.13;;;24.04;90.95
40612;BME280;26317;44.894;20.286;2023-08-20T04:20:40;100930.72;;;23.98;91.48
40612;BME280;26317;44.894;20.286;2023-08-20T04:23:14;100930.34;;;23.83;91.71
40612;BME280;26317;44.894;20.286;2023-08-20T04:26:05;100928.13;;;23.89;91.80
40612;BME280;26317;44.894;20.286;2023-08-20T04:28:49;100925.28;;;23.86;92.32
40612;BME280;26317;44.894;20.286;2023-08-20T04:31:28;100939.78;;;23.86;92.05
40612;BME280;26317;44.894;20.286;2023-08-20T04:34:09;100924.88;;;23.83;92.52
40612;BME280;26317;44.894;20.286;2023-08-20T04:36:52;100930.16;;;23.92;92.53
40612;BME280;26317;44.894;20.286;2023-08-20T04:39:36;100932.66;;;23.97;91.99
40612;BME280;26317;44.894;20.286;2023-08-20T04:42:22;100931.97;;;24.00;91.92
40612;BME280;26317;44.894;20.286;2023-08-20T04:44:58;100940.28;;;24.04;91.96
40612;BME280;26317;44.894;20.286;2023-08-20T04:47:35;100943.53;;;24.09;92.09
40612;BME280;26317;44.894;20.286;2023-08-20T04:50:18;100951.63;;;24.18;92.13
40612;BME280;26317;44.894;20.286;2023-08-20T04:52:52;100942.34;;;24.22;91.38
40612;BME280;26317;44.894;20.286;2023-08-20T04:55:33;100953.41;;;24.26;91.23
40612;BME280;26317;44.894;20.286;2023-08-20T04:58:19;100950.88;;;24.33;90.91
40612;BME280;26317;44.894;20.286;2023-08-20T05:00:58;100932.09;;;24.35;91.29
40612;BME280;26317;44.894;20.286;2023-08-20T05:03:34;100947.41;;;24.52;91.30
40612;BME280;26317;44.894;20.286;2023-08-20T05:06:13;100944.75;;;24.55;91.62
40612;BME280;26317;44.894;20.286;2023-08-20T05:08:53;100946.91;;;24.46;91.23
40612;BME280;26317;44.894;20.286;2023-08-20T05:11:33;100950.69;;;24.42;92.37
40612;BME280;26317;44.894;20.286;2023-08-20T05:14:27;100956.25;;;24.45;92.66
40612;BME280;26317;44.894;20.286;2023-08-20T05:16:59;100947.06;;;24.38;92.31
40612;BME280;26317;44.894;20.286;2023-08-20T05:19:32;100949.91;;;24.41;92.38
40612;BME280;26317;44.894;20.286;2023-08-20T05:22:11;100952.19;;;24.39;92.82
40612;BME280;26317;44.894;20.286;2023-08-20T05:24:48;100942.81;;;24.40;93.08
40612;BME280;26317;44.894;20.286;2023-08-20T05:27:28;100946.78;;;24.43;93.33
40612;BME280;26317;44.894;20.286;2023-08-20T05:30:11;100945.72;;;24.32;93.40
40612;BME280;26317;44.894;20.286;2023-08-20T05:32:54;100959.44;;;24.47;94.08
40612;BME280;26317;44.894;20.286;2023-08-20T05:35:35;100966.09;;;24.46;93.47
40612;BME280;26317;44.894;20.286;2023-08-20T05:38:22;100964.66;;;24.52;94.42
40612;BME280;26317;44.894;20.286;2023-08-20T05:40:57;100947.78;;;24.50;94.05
40612;BME280;26317;44.894;20.286;2023-08-20T05:43:35;100952.53;;;24.53;93.90
40612;BME280;26317;44.894;20.286;2023-08-20T05:46:19;100961.31;;;24.59;94.46
40612;BME280;26317;44.894;20.286;2023-08-20T05:48:59;100967.69;;;24.63;94.30
40612;BME280;26317;44.894;20.286;2023-08-20T05:51:47;100960.03;;;24.72;93.79
40612;BME280;26317;44.894;20.286;2023-08-20T05:54:26;100958.28;;;24.80;94.45
40612;BME280;26317;44.894;20.286;2023-08-20T05:57:02;100959.16;;;24.84;93.17
40612;BME280;26317;44.894;20.286;2023-08-20T05:59:35;100959.94;;;24.84;92.27
40612;BME280;26317;44.894;20.286;2023-08-20T06:02:24;100972.53;;;24.85;93.81
40612;BME280;26317;44.894;20.286;2023-08-20T06:05:02;100976.53;;;24.88;93.63
40612;BME280;26317;44.894;20.286;2023-08-20T06:07:44;100979.38;;;24.91;94.03
40612;BME280;26317;44.894;20.286;2023-08-20T06:10:19;100972.88;;;24.99;93.72
40612;BME280;26317;44.894;20.286;2023-08-20T06:12:52;100960.84;;;25.04;93.70
40612;BME280;26317;44.894;20.286;2023-08-20T06:15:28;100974.88;;;25.18;92.92
40612;BME280;26317;44.894;20.286;2023-08-20T06:18:08;100969.09;;;25.23;92.37
40612;BME280;26317;44.894;20.286;2023-08-20T06:20:41;100964.56;;;25.31;92.11
40612;BME280;26317;44.894;20.286;2023-08-20T06:23:13;100968.75;;;25.44;92.26
40612;BME280;26317;44.894;20.286;2023-08-20T06:26:12;100976.56;;;25.57;91.29
40612;BME280;26317;44.894;20.286;2023-08-20T06:28:50;100982.47;;;25.59;91.14
40612;BME280;26317;44.894;20.286;2023-08-20T06:31:30;100977.84;;;25.63;91.72
40612;BME280;26317;44.894;20.286;2023-08-20T06:34:05;100984.09;;;25.80;91.56
40612;BME280;26317;44.894;20.286;2023-08-20T06:36:40;100991.72;;;25.90;91.26
40612;BME280;26317;44.894;20.286;2023-08-20T06:39:21;100982.09;;;25.99;90.94
40612;BME280;26317;44.894;20.286;2023-08-20T06:42:02;100972.03;;;26.07;90.66
40612;BME280;26317;44.894;20.286;2023-08-20T06:44:40;100965.56;;;26.19;90.17
40612;BME280;26317;44.894;20.286;2023-08-20T06:47:13;100973.66;;;26.31;90.32
40612;BME280;26317;44.894;20.286;2023-08-20T06:49:47;100980.03;;;26.35;89.61
40612;BME280;26317;44.894;20.286;2023-08-20T06:52:25;100970.81;;;26.46;88.68
40612;BME280;26317;44.894;20.286;2023-08-20T06:54:58;100968.16;;;26.53;87.45
40612;BME280;26317;44.894;20.286;2023-08-20T06:57:49;100973.47;;;26.66;86.71
40612;BME280;26317;44.894;20.286;2023-08-20T07:00:23;100965.16;;;26.62;83.62
40612;BME280;26317;44.894;20.286;2023-08-20T07:02:56;100975.97;;;26.74;82.23
40612;BME280;26317;44.894;20.286;2023-08-20T07:05:49;100973.72;;;26.80;81.10
40612;BME280;26317;44.894;20.286;2023-08-20T07:08:27;100973.50;;;26.88;81.42
40612;BME280;26317;44.894;20.286;2023-08-20T07:11:11;100976.03;;;27.01;81.01
40612;BME280;26317;44.894;20.286;2023-08-20T07:13:54;100989.47;;;27.06;78.95
40612;BME280;26317;44.894;20.286;2023-08-20T07:16:37;100990.75;;;27.12;77.42
40612;BME280;26317;44.894;20.286;2023-08-20T07:19:20;101003.50;;;27.23;77.83
40612;BME280;26317;44.894;20.286;2023-08-20T07:21:57;100998.06;;;27.30;79.30
40612;BME280;26317;44.894;20.286;2023-08-20T07:24:31;101001.34;;;27.39;77.95
40612;BME280;26317;44.894;20.286;2023-08-20T07:27:12;101009.41;;;27.52;79.12
40612;BME280;26317;44.894;20.286;2023-08-20T07:29:48;101009.53;;;27.59;78.31
40612;BME280;26317;44.894;20.286;2023-08-20T07:32:21;101008.06;;;27.68;77.74
40612;BME280;26317;44.894;20.286;2023-08-20T07:34:56;101015.22;;;27.73;76.24
40612;BME280;26317;44.894;20.286;2023-08-20T07:37:40;101010.97;;;27.79;73.50
40612;BME280;26317;44.894;20.286;2023-08-20T07:40:20;101007.13;;;27.87;71.93
40612;BME280;26317;44.894;20.286;2023-08-20T07:42:56;101005.59;;;27.93;72.86
40612;BME280;26317;44.894;20.286;2023-08-20T07:45:30;100998.16;;;27.97;72.17
40612;BME280;26317;44.894;20.286;2023-08-20T07:48:07;101008.53;;;28.07;72.42
40612;BME280;26317;44.894;20.286;2023-08-20T07:50:44;100999.19;;;28.15;70.60
40612;BME280;26317;44.894;20.286;2023-08-20T07:53:19;100997.28;;;28.23;69.83
40612;BME280;26317;44.894;20.286;2023-08-20T07:56:06;100998.19;;;28.34;70.28
40612;BME280;26317;44.894;20.286;2023-08-20T07:58:44;101002.19;;;28.40;64.65
40612;BME280;26317;44.894;20.286;2023-08-20T08:01:21;100999.09;;;28.45;64.06
40612;BME280;26317;44.894;20.286;2023-08-20T08:04:05;100998.78;;;28.54;62.79
40612;BME280;26317;44.894;20.286;2023-08-20T08:06:42;100995.25;;;28.60;63.42
40612;BME280;26317;44.894;20.286;2023-08-20T08:09:30;100998.09;;;28.64;64.71
40612;BME280;26317;44.894;20.286;2023-08-20T08:12:08;101000.47;;;28.69;63.45
40612;BME280;26317;44.894;20.286;2023-08-20T08:14:52;101004.53;;;28.78;65.70
40612;BME280;26317;44.894;20.286;2023-08-20T08:17:30;101006.53;;;28.85;63.92
40612;BME280;26317;44.894;20.286;2023-08-20T08:20:16;101005.03;;;28.91;62.34
40612;BME280;26317;44.894;20.286;2023-08-20T08:23:08;101013.81;;;29.07;60.74
40612;BME280;26317;44.894;20.286;2023-08-20T08:25:57;101015.06;;;29.13;59.94
40612;BME280;26317;44.894;20.286;2023-08-20T08:28:47;101011.50;;;29.16;58.81
40612;BME280;26317;44.894;20.286;2023-08-20T08:31:21;101006.34;;;29.15;59.21
40612;BME280;26317;44.894;20.286;2023-08-20T08:34:13;101017.03;;;29.16;59.26
40612;BME280;26317;44.894;20.286;2023-08-20T08:36:58;101014.31;;;29.23;58.81
40612;BME280;26317;44.894;20.286;2023-08-20T08:39:35;101013.16;;;29.28;60.38
40612;BME280;26317;44.894;20.286;2023-08-20T08:42:22;101017.19;;;29.38;59.64
40612;BME280;26317;44.894;20.286;2023-08-20T08:45:17;101009.75;;;29.52;57.74
40612;BME280;26317;44.894;20.286;2023-08-20T08:47:53;101009.81;;;29.63;56.77
40612;BME280;26317;44.894;20.286;2023-08-20T08:50:32;101009.03;;;29.66;55.92
40612;BME280;26317;44.894;20.286;2023-08-20T08:53:11;101007.50;;;29.72;56.08
40612;BME280;26317;44.894;20.286;2023-08-20T08:55:49;101009.53;;;29.89;56.19
40612;BME280;26317;44.894;20.286;2023-08-20T08:58:32;101010.75;;;29.92;52.92
40612;BME280;26317;44.894;20.286;2023-08-20T09:01:08;101013.94;;;30.01;54.81
40612;BME280;26317;44.894;20.286;2023-08-20T09:03:44;101008.03;;;30.13;54.03
40612;BME280;26317;44.894;20.286;2023-08-20T09:06:18;101015.59;;;30.30;52.31
40612;BME280;26317;44.894;20.286;2023-08-20T09:09:09;101009.25;;;30.33;51.29
40612;BME280;26317;44.894;20.286;2023-08-20T09:11:50;101001.75;;;30.41;51.39
40612;BME280;26317;44.894;20.286;2023-08-20T09:14:36;101015.63;;;30.44;52.72
40612;BME280;26317;44.894;20.286;2023-08-20T09:17:35;101012.84;;;30.44;52.38
40612;BME280;26317;44.894;20.286;2023-08-20T09:20:13;101010.13;;;30.51;52.48
40612;BME280;26317;44.894;20.286;2023-08-20T09:22:50;100992.69;;;30.58;50.51
40612;BME280;26317;44.894;20.286;2023-08-20T09:25:36;101011.69;;;30.77;49.36
40612;BME280;26317;44.894;20.286;2023-08-20T09:28:17;101007.72;;;30.89;49.52
40612;BME280;26317;44.894;20.286;2023-08-20T09:31:06;101010.50;;;30.96;51.38
40612;BME280;26317;44.894;20.286;2023-08-20T09:33:54;101010.13;;;31.04;48.95
40612;BME280;26317;44.894;20.286;2023-08-20T09:36:32;101010.91;;;31.09;48.77
40612;BME280;26317;44.894;20.286;2023-08-20T09:39:13;101009.28;;;31.22;48.08
40612;BME280;26317;44.894;20.286;2023-08-20T09:42:11;101010.03;;;31.36;46.59
40612;BME280;26317;44.894;20.286;2023-08-20T09:44:57;101008.03;;;31.40;46.44
40612;BME280;26317;44.894;20.286;2023-08-20T09:47:49;101012.38;;;31.48;46.48
40612;BME280;26317;44.894;20.286;2023-08-20T09:50:36;100999.63;;;31.69;46.61
40612;BME280;26317;44.894;20.286;2023-08-20T09:53:21;101008.66;;;31.90;44.19
40612;BME280;26317;44.894;20.286;2023-08-20T09:55:56;101008.19;;;32.03;46.22
40612;BME280;26317;44.894;20.286;2023-08-20T09:58:40;100999.41;;;32.15;45.57
40612;BME280;26317;44.894;20.286;2023-08-20T10:01:25;101004.09;;;32.28;44.86
40612;BME280;26317;44.894;20.286;2023-08-20T10:04:04;101004.06;;;32.32;46.37
40612;BME280;26317;44.894;20.286;2023-08-20T10:06:44;100992.97;;;32.32;43.91
40612;BME280;26317;44.894;20.286;2023-08-20T10:09:43;101003.69;;;32.30;44.64
40612;BME280;26317;44.894;20.286;2023-08-20T10:12:24;101001.78;;;32.20;45.67
40612;BME280;26317;44.894;20.286;2023-08-20T10:15:06;100996.97;;;32.24;45.20
40612;BME280;26317;44.894;20.286;2023-08-20T10:17:48;100994.59;;;32.26;46.08
40612;BME280;26317;44.894;20.286;2023-08-20T10:20:35;100992.97;;;32.32;46.38
40612;BME280;26317;44.894;20.286;2023-08-20T10:23:12;100997.66;;;32.42;46.82
40612;BME280;26317;44.894;20.286;2023-08-20T10:25:51;100994.50;;;32.36;44.23
40612;BME280;26317;44.894;20.286;2023-08-20T10:28:28;101000.03;;;32.44;47.29
40612;BME280;26317;44.894;20.286;2023-08-20T10:31:10;100989.69;;;32.48;45.83
40612;BME280;26317;44.894;20.286;2023-08-20T10:33:54;100985.69;;;32.52;45.57
40612;BME280;26317;44.894;20.286;2023-08-20T10:36:51;100995.00;;;32.79;44.52
40612;BME280;26317;44.894;20.286;2023-08-20T10:39:24;100991.69;;;32.92;46.14
40612;BME280;26317;44.894;20.286;2023-08-20T10:42:25;100990.81;;;32.98;44.94
40612;BME280;26317;44.894;20.286;2023-08-20T10:45:14;100994.72;;;33.08;42.03
40612;BME280;26317;44.894;20.286;2023-08-20T10:47:50;100987.13;;;33.12;43.53
40612;BME280;26317;44.894;20.286;2023-08-20T10:50:31;100982.28;;;33.23;42.74
40612;BME280;26317;44.894;20.286;2023-08-20T10:53:17;100992.06;;;33.35;40.59
40612;BME280;26317;44.894;20.286;2023-08-20T10:56:08;100988.75;;;33.47;40.59
40612;BME280;26317;44.894;20.286;2023-08-20T10:58:48;100988.59;;;33.57;38.57
40612;BME280;26317;44.894;20.286;2023-08-20T11:01:26;100983.78;;;33.65;38.10
40612;BME280;26317;44.894;20.286;2023-08-20T11:04:05;100992.44;;;33.70;37.56
40612;BME280;26317;44.894;20.286;2023-08-20T11:06:53;100987.72;;;33.67;37.62
40612;BME280;26317;44.894;20.286;2023-08-20T11:09:32;100983.25;;;33.73;37.65
40612;BME280;26317;44.894;20.286;2023-08-20T11:12:20;100984.72;;;33.85;37.91
40612;BME280;26317;44.894;20.286;2023-08-20T11:15:10;100992.16;;;33.92;38.12
40612;BME280;26317;44.894;20.286;2023-08-20T11:17:52;100980.56;;;33.97;37.69
40612;BME280;26317;44.894;20.286;2023-08-20T11:20:29;100984.50;;;33.99;37.68
40612;BME280;26317;44.894;20.286;2023-08-20T11:23:06;100983.97;;;34.08;38.21
40612;BME280;26317;44.894;20.286;2023-08-20T11:25:57;100979.31;;;34.01;37.62
40612;BME280;26317;44.894;20.286;2023-08-20T11:28:37;100985.00;;;33.91;38.91
40612;BME280;26317;44.894;20.286;2023-08-20T11:31:11;100966.69;;;33.93;39.12
40612;BME280;26317;44.894;20.286;2023-08-20T11:33:47;100973.28;;;34.03;40.23
40612;BME280;26317;44.894;20.286;2023-08-20T11:36:22;100978.78;;;34.10;39.37
40612;BME280;26317;44.894;20.286;2023-08-20T11:39:03;100978.31;;;34.15;38.38
40612;BME280;26317;44.894;20.286;2023-08-20T11:41:44;100973.38;;;34.26;36.96
40612;BME280;26317;44.894;20.286;2023-08-20T11:44:21;100969.69;;;34.33;36.29
40612;BME280;26317;44.894;20.286;2023-08-20T11:46:58;100969.06;;;34.48;34.87
40612;BME280;26317;44.894;20.286;2023-08-20T11:49:35;100957.78;;;34.55;36.40
40612;BME280;26317;44.894;20.286;2023-08-20T11:52:28;100965.19;;;34.66;37.28
40612;BME280;26317;44.894;20.286;2023-08-20T11:55:07;100955.84;;;34.76;37.56
40612;BME280;26317;44.894;20.286;2023-08-20T11:57:59;100965.59;;;34.87;36.45
40612;BME280;26317;44.894;20.286;2023-08-20T12:00:34;100963.19;;;34.89;36.41
40612;BME280;26317;44.894;20.286;2023-08-20T12:03:29;100957.94;;;34.91;36.28
40612;BME280;26317;44.894;20.286;2023-08-20T12:06:21;100962.09;;;35.03;37.29
40612;BME280;26317;44.894;20.286;2023-08-20T12:09:19;100960.78;;;35.11;35.30
40612;BME280;26317;44.894;20.286;2023-08-20T12:11:54;100950.28;;;35.19;33.21
40612;BME280;26317;44.894;20.286;2023-08-20T12:14:34;100959.63;;;35.28;34.39
40612;BME280;26317;44.894;20.286;2023-08-20T12:17:17;100939.78;;;35.26;33.20
40612;BME280;26317;44.894;20.286;2023-08-20T12:19:55;100947.63;;;35.31;34.05
40612;BME280;26317;44.894;20.286;2023-08-20T12:22:29;100949.72;;;35.27;32.13
40612;BME280;26317;44.894;20.286;2023-08-20T12:25:00;100946.84;;;35.31;34.50
40612;BME280;26317;44.894;20.286;2023-08-20T12:27:38;100937.69;;;35.30;31.83
40612;BME280;26317;44.894;20.286;2023-08-20T12:30:24;100944.53;;;35.45;30.06
40612;BME280;26317;44.894;20.286;2023-08-20T12:33:09;100942.81;;;35.51;31.35
40612;BME280;26317;44.894;20.286;2023-08-20T12:35:54;100934.66;;;35.61;33.40
40612;BME280;26317;44.894;20.286;2023-08-20T12:38:36;100930.44;;;35.72;34.23
40612;BME280;26317;44.894;20.286;2023-08-20T12:41:09;100931.56;;;35.91;32.87
40612;BME280;26317;44.894;20.286;2023-08-20T12:43:51;100928.78;;;36.07;34.88
40612;BME280;26317;44.894;20.286;2023-08-20T12:46:41;100933.34;;;36.01;34.27
40612;BME280;26317;44.894;20.286;2023-08-20T12:49:33;100929.16;;;36.09;34.49
40612;BME280;26317;44.894;20.286;2023-08-20T12:52:09;100928.69;;;36.14;33.46
40612;BME280;26317;44.894;20.286;2023-08-20T12:54:54;100920.00;;;36.25;34.80
40612;BME280;26317;44.894;20.286;2023-08-20T12:57:30;100907.53;;;36.29;33.74
40612;BME280;26317;44.894;20.286;2023-08-20T13:00:16;100913.09;;;36.46;34.49
40612;BME280;26317;44.894;20.286;2023-08-20T13:03:03;100896.22;;;36.49;34.10
40612;BME280;26317;44.894;20.286;2023-08-20T13:05:42;100908.59;;;36.35;34.32
40612;BME280;26317;44.894;20.286;2023-08-20T13:08:28;100891.97;;;36.28;34.65
40612;BME280;26317;44.894;20.286;2023-08-20T13:11:04;100891.91;;;36.32;34.53
40612;BME280;26317;44.894;20.286;2023-08-20T13:13:44;100896.31;;;36.46;35.01
40612;BME280;26317;44.894;20.286;2023-08-20T13:16:20;100884.53;;;36.54;33.42
40612;BME280;26317;44.894;20.286;2023-08-20T13:19:19;100892.31;;;36.63;34.01
40612;BME280;26317;44.894;20.286;2023-08-20T13:21:55;100888.69;;;36.78;33.87
40612;BME280;26317;44.894;20.286;2023-08-20T13:24:33;100887.28;;;36.99;34.46
40612;BME280;26317;44.894;20.286;2023-08-20T13:27:17;100880.47;;;37.00;32.74
40612;BME280;26317;44.894;20.286;2023-08-20T13:30:07;100882.47;;;37.00;32.94
40612;BME280;26317;44.894;20.286;2023-08-20T13:32:45;100877.84;;;37.09;33.07
40612;BME280;26317;44.894;20.286;2023-08-20T13:35:37;100879.16;;;37.05;31.64
40612;BME280;26317;44.894;20.286;2023-08-20T13:38:12;100879.06;;;37.08;33.57
40612;BME280;26317;44.894;20.286;2023-08-20T13:41:02;100879.09;;;37.21;33.26
40612;BME280;26317;44.894;20.286;2023-08-20T13:43:37;100873.63;;;37.30;33.21
40612;BME280;26317;44.894;20.286;2023-08-20T13:46:19;100868.38;;;37.32;32.87
40612;BME280;26317;44.894;20.286;2023-08-20T13:49:05;100874.44;;;37.43;32.20
40612;BME280;26317;44.894;20.286;2023-08-20T13:51:47;100873.63;;;37.43;33.37
40612;BME280;26317;44.894;20.286;2023-08-20T13:54:22;100864.59;;;37.51;30.62